sensor_id;sensor_type;location;lat;lon;timestamp;pressure;altitude;pressure_sealevel;temperature;humidity
53041;BME280;39326;42.650;23.248;2023-01-29T00:01:06;92581.38;;;-2.41;87.68
53041;BME280;39326;42.650;23.248;2023-01-29T00:03:33;92577.13;;;-2.28;87.87
53041;BME280;39326;42.650;23.248;2023-01-29T00:05:59;92572.69;;;-2.19;87.31
53041;BME280;39326;42.650;23.248;2023-01-29T00:08:25;92580.88;;;-2.12;86.86
53041;BME280;39326;42.650;23.248;2023-01-29T00:10:51;92582.22;;;-2.23;86.37
53041;BME280;39326;42.650;23.248;2023-01-29T00:13:17;92566.50;;;-2.32;86.78
53041;BME280;39326;42.650;23.248;2023-01-29T00:15:52;92564.53;;;-2.35;87.27
53041;BME280;39326;42.650;23.248;2023-01-29T00:18:17;92581.88;;;-2.30;86.97
53041;BME280;39326;42.650;23.248;2023-01-29T00:20:43;92583.91;;;-2.27;87.10
53041;BME280;39326;42.650;23.248;2023-01-29T00:23:08;92582.50;;;-2.25;86.90
53041;BME280;39326;42.650;23.248;2023-01-29T00:25:33;92588.09;;;-2.18;87.24
53041;BME280;39326;42.650;23.248;2023-01-29T00:27:59;92585.47;;;-2.18;86.40
53041;BME280;39326;42.650;23.248;2023-01-29T00:30:24;92593.72;;;-2.24;86.48
53041;BME280;39326;42.650;23.248;2023-01-29T00:32:50;92595.78;;;-2.44;87.44
53041;BME280;39326;42.650;23.248;2023-01-29T00:35:15;92596.94;;;-2.27;87.33
53041;BME280;39326;42.650;23.248;2023-01-29T00:37:40;92592.25;;;-2.17;86.48
53041;BME280;39326;42.650;23.248;2023-01-29T00:40:07;92598.34;;;-2.21;86.47
53041;BME280;39326;42.650;23.248;2023-01-29T00:42:33;92588.84;;;-2.17;86.12
53041;BME280;39326;42.650;23.248;2023-01-29T00:45:17;92600.16;;;-2.30;86.74
53041;BME280;39326;42.650;23.248;2023-01-29T00:47:43;92604.16;;;-2.24;86.77
53041;BME280;39326;42.650;23.248;2023-01-29T00:50:10;92598.66;;;-2.23;87.00
53041;BME280;39326;42.650;23.248;2023-01-29T00:52:36;92596.53;;;-2.12;86.36
53041;BME280;39326;42.650;23.248;2023-01-29T00:55:03;92595.50;;;-2.11;86.56
53041;BME280;39326;42.650;23.248;2023-01-29T00:57:30;92602.63;;;-2.25;87.62
53041;BME280;39326;42.650;23.248;2023-01-29T00:59:56;92603.41;;;-2.25;87.26
53041;BME280;39326;42.650;23.248;2023-01-29T01:02:22;92600.88;;;-2.39;87.09
53041;BME280;39326;42.650;23.248;2023-01-29T01:05:07;92598.56;;;-2.49;88.14
53041;BME280;39326;42.650;23.248;2023-01-29T01:07:34;92603.47;;;-2.47;87.95
53041;BME280;39326;42.650;23.248;2023-01-29T01:09:59;92603.69;;;-2.35;87.72
53041;BME280;39326;42.650;23.248;2023-01-29T01:12:43;92596.75;;;-2.40;87.99
53041;BME280;39326;42.650;23.248;2023-01-29T01:15:09;92598.78;;;-2.37;88.19
53041;BME280;39326;42.650;23.248;2023-01-29T01:17:35;92597.97;;;-2.37;87.96
53041;BME280;39326;42.650;23.248;2023-01-29T01:20:00;92592.97;;;-2.56;88.99
53041;BME280;39326;42.650;23.248;2023-01-29T01:22:26;92597.72;;;-2.58;89.31
53041;BME280;39326;42.650;23.248;2023-01-29T01:24:52;92595.84;;;-2.35;88.09
53041;BME280;39326;42.650;23.248;2023-01-29T01:27:17;92601.75;;;-2.52;88.69
53041;BME280;39326;42.650;23.248;2023-01-29T01:29:44;92601.50;;;-2.42;88.50
53041;BME280;39326;42.650;23.248;2023-01-29T01:32:11;92604.13;;;-2.42;88.69
53041;BME280;39326;42.650;23.248;2023-01-29T01:34:36;92611.66;;;-2.40;88.54
53041;BME280;39326;42.650;23.248;2023-01-29T01:37:02;92599.88;;;-2.29;88.25
53041;BME280;39326;42.650;23.248;2023-01-29T01:39:28;92601.28;;;-2.54;89.02
53041;BME280;39326;42.650;23.248;2023-01-29T01:41:53;92599.47;;;-2.45;89.28
53041;BME280;39326;42.650;23.248;2023-01-29T01:49:55;92604.13;;;-2.42;88.88
53041;BME280;39326;42.650;23.248;2023-01-29T01:52:21;92609.47;;;-2.47;89.29
53041;BME280;39326;42.650;23.248;2023-01-29T01:54:48;92610.25;;;-2.38;88.67
53041;BME280;39326;42.650;23.248;2023-01-29T01:57:17;92605.97;;;-2.42;89.13
53041;BME280;39326;42.650;23.248;2023-01-29T01:59:55;92605.41;;;-2.62;89.38
53041;BME280;39326;42.650;23.248;2023-01-29T02:02:23;92603.63;;;-2.44;88.69
53041;BME280;39326;42.650;23.248;2023-01-29T02:05:07;92616.84;;;-2.49;88.96
53041;BME280;39326;42.650;23.248;2023-01-29T02:07:53;92595.94;;;-2.49;88.52
53041;BME280;39326;42.650;23.248;2023-01-29T02:10:41;92610.75;;;-2.36;88.89
53041;BME280;39326;42.650;23.248;2023-01-29T02:13:07;92611.53;;;-2.35;88.47
53041;BME280;39326;42.650;23.248;2023-01-29T02:15:33;92610.53;;;-2.48;88.49
53041;BME280;39326;42.650;23.248;2023-01-29T02:17:59;92603.25;;;-2.28;88.34
53041;BME280;39326;42.650;23.248;2023-01-29T02:20:29;92611.84;;;-2.28;87.86
53041;BME280;39326;42.650;23.248;2023-01-29T02:28:36;92613.63;;;-2.37;88.37
53041;BME280;39326;42.650;23.248;2023-01-29T02:31:23;92615.53;;;-2.29;87.89
53041;BME280;39326;42.650;23.248;2023-01-29T02:44:40;92639.75;;;-2.06;87.37
53041;BME280;39326;42.650;23.248;2023-01-29T02:47:31;92638.50;;;-2.09;87.42
53041;BME280;39326;42.650;23.248;2023-01-29T02:50:41;92643.44;;;-2.07;87.08
53041;BME280;39326;42.650;23.248;2023-01-29T02:53:18;92638.84;;;-2.01;87.34
53041;BME280;39326;42.650;23.248;2023-01-29T02:55:51;92638.06;;;-2.02;86.80
53041;BME280;39326;42.650;23.248;2023-01-29T03:00:46;92634.25;;;-1.96;86.74
53041;BME280;39326;42.650;23.248;2023-01-29T03:03:42;92642.84;;;-2.04;87.08
53041;BME280;39326;42.650;23.248;2023-01-29T03:06:31;92638.28;;;-1.90;86.19
53041;BME280;39326;42.650;23.248;2023-01-29T03:09:07;92639.81;;;-1.89;85.33
53041;BME280;39326;42.650;23.248;2023-01-29T03:11:39;92635.47;;;-1.93;85.43
53041;BME280;39326;42.650;23.248;2023-01-29T03:14:15;92633.03;;;-1.98;85.79
53041;BME280;39326;42.650;23.248;2023-01-29T03:16:52;92642.84;;;-2.04;85.62
53041;BME280;39326;42.650;23.248;2023-01-29T03:19:32;92649.13;;;-2.05;85.44
53041;BME280;39326;42.650;23.248;2023-01-29T03:22:03;92634.81;;;-2.08;85.45
53041;BME280;39326;42.650;23.248;2023-01-29T03:24:40;92652.09;;;-2.29;86.24
53041;BME280;39326;42.650;23.248;2023-01-29T03:27:34;92650.78;;;-2.18;86.07
53041;BME280;39326;42.650;23.248;2023-01-29T03:30:21;92655.19;;;-2.18;86.13
53041;BME280;39326;42.650;23.248;2023-01-29T03:33:09;92653.56;;;-2.05;85.30
53041;BME280;39326;42.650;23.248;2023-01-29T03:35:42;92649.59;;;-2.03;85.10
53041;BME280;39326;42.650;23.248;2023-01-29T03:38:12;92656.06;;;-2.00;85.41
53041;BME280;39326;42.650;23.248;2023-01-29T03:40:47;92652.53;;;-1.96;85.21
53041;BME280;39326;42.650;23.248;2023-01-29T03:43:36;92645.16;;;-1.94;84.90
53041;BME280;39326;42.650;23.248;2023-01-29T03:46:09;92650.81;;;-2.00;84.57
53041;BME280;39326;42.650;23.248;2023-01-29T03:48:53;92646.84;;;-1.98;84.39
53041;BME280;39326;42.650;23.248;2023-01-29T03:51:30;92647.56;;;-2.06;84.40
53041;BME280;39326;42.650;23.248;2023-01-29T03:54:14;92655.06;;;-2.13;84.76
53041;BME280;39326;42.650;23.248;2023-01-29T03:57:00;92656.78;;;-2.09;85.16
53041;BME280;39326;42.650;23.248;2023-01-29T04:00:09;92645.28;;;-2.08;85.06
53041;BME280;39326;42.650;23.248;2023-01-29T04:05:39;92644.63;;;-2.13;85.13
53041;BME280;39326;42.650;23.248;2023-01-29T04:08:10;92644.28;;;-2.20;85.16
53041;BME280;39326;42.650;23.248;2023-01-29T04:10:37;92648.00;;;-2.13;84.74
53041;BME280;39326;42.650;23.248;2023-01-29T04:13:10;92649.41;;;-2.15;85.08
53041;BME280;39326;42.650;23.248;2023-01-29T04:15:45;92643.22;;;-2.19;85.30
53041;BME280;39326;42.650;23.248;2023-01-29T04:18:12;92652.59;;;-2.18;85.28
53041;BME280;39326;42.650;23.248;2023-01-29T04:20:37;92659.81;;;-2.24;85.07
53041;BME280;39326;42.650;23.248;2023-01-29T04:23:06;92661.56;;;-2.11;85.21
53041;BME280;39326;42.650;23.248;2023-01-29T04:25:52;92665.84;;;-2.06;84.76
53041;BME280;39326;42.650;23.248;2023-01-29T04:28:27;92656.19;;;-2.05;85.07
53041;BME280;39326;42.650;23.248;2023-01-29T04:30:59;92656.97;;;-2.05;85.54
53041;BME280;39326;42.650;23.248;2023-01-29T04:33:28;92659.75;;;-2.01;85.20
53041;BME280;39326;42.650;23.248;2023-01-29T04:44:22;92667.28;;;-2.00;85.30
53041;BME280;39326;42.650;23.248;2023-01-29T04:47:01;92661.75;;;-1.98;85.15
53041;BME280;39326;42.650;23.248;2023-01-29T04:49:33;92661.91;;;-1.95;84.96
53041;BME280;39326;42.650;23.248;2023-01-29T04:57:19;92672.50;;;-2.00;84.36
53041;BME280;39326;42.650;23.248;2023-01-29T04:59:59;92669.44;;;-1.93;83.60
53041;BME280;39326;42.650;23.248;2023-01-29T05:02:32;92665.59;;;-1.96;84.56
53041;BME280;39326;42.650;23.248;2023-01-29T05:05:00;92668.53;;;-1.97;84.02
53041;BME280;39326;42.650;23.248;2023-01-29T05:07:29;92671.94;;;-1.88;83.54
53041;BME280;39326;42.650;23.248;2023-01-29T05:09:55;92673.13;;;-1.94;83.37
53041;BME280;39326;42.650;23.248;2023-01-29T05:12:24;92679.28;;;-1.99;83.39
53041;BME280;39326;42.650;23.248;2023-01-29T05:14:52;92682.66;;;-1.98;83.63
53041;BME280;39326;42.650;23.248;2023-01-29T05:17:20;92682.66;;;-1.98;84.25
53041;BME280;39326;42.650;23.248;2023-01-29T05:19:46;92676.38;;;-1.97;84.59
53041;BME280;39326;42.650;23.248;2023-01-29T05:22:14;92678.09;;;-1.84;84.00
53041;BME280;39326;42.650;23.248;2023-01-29T05:24:40;92680.06;;;-1.90;83.85
53041;BME280;39326;42.650;23.248;2023-01-29T05:27:13;92678.38;;;-1.94;84.04
53041;BME280;39326;42.650;23.248;2023-01-29T05:30:00;92679.31;;;-1.90;83.64
53041;BME280;39326;42.650;23.248;2023-01-29T05:32:25;92685.28;;;-1.98;84.26
53041;BME280;39326;42.650;23.248;2023-01-29T05:34:51;92684.97;;;-1.97;84.59
53041;BME280;39326;42.650;23.248;2023-01-29T05:37:16;92691.56;;;-1.99;83.77
53041;BME280;39326;42.650;23.248;2023-01-29T05:39:41;92693.88;;;-1.98;84.11
53041;BME280;39326;42.650;23.248;2023-01-29T05:42:07;92687.97;;;-2.12;84.85
53041;BME280;39326;42.650;23.248;2023-01-29T05:44:32;92692.19;;;-1.94;83.90
53041;BME280;39326;42.650;23.248;2023-01-29T05:46:58;92692.50;;;-1.95;84.33
53041;BME280;39326;42.650;23.248;2023-01-29T05:49:23;92695.88;;;-1.95;84.64
53041;BME280;39326;42.650;23.248;2023-01-29T05:51:48;92697.59;;;-1.90;84.46
53041;BME280;39326;42.650;23.248;2023-01-29T05:54:14;92693.16;;;-1.90;84.54
53041;BME280;39326;42.650;23.248;2023-01-29T05:56:39;92701.41;;;-1.96;84.63
53041;BME280;39326;42.650;23.248;2023-01-29T05:59:05;92697.75;;;-1.87;84.91
53041;BME280;39326;42.650;23.248;2023-01-29T06:01:31;92702.06;;;-1.91;84.56
53041;BME280;39326;42.650;23.248;2023-01-29T06:03:57;92697.28;;;-1.89;84.00
53041;BME280;39326;42.650;23.248;2023-01-29T06:06:22;92706.72;;;-1.79;83.80
53041;BME280;39326;42.650;23.248;2023-01-29T06:08:48;92704.38;;;-1.81;84.29
53041;BME280;39326;42.650;23.248;2023-01-29T06:11:14;92707.63;;;-1.84;84.14
53041;BME280;39326;42.650;23.248;2023-01-29T06:13:40;92719.59;;;-1.91;83.78
53041;BME280;39326;42.650;23.248;2023-01-29T06:16:07;92721.28;;;-1.87;84.48
53041;BME280;39326;42.650;23.248;2023-01-29T06:18:33;92722.41;;;-1.79;84.35
53041;BME280;39326;42.650;23.248;2023-01-29T06:21:05;92725.56;;;-1.91;84.94
53041;BME280;39326;42.650;23.248;2023-01-29T06:23:31;92725.59;;;-1.82;84.34
53041;BME280;39326;42.650;23.248;2023-01-29T06:26:04;92728.41;;;-1.78;84.10
53041;BME280;39326;42.650;23.248;2023-01-29T06:28:30;92736.56;;;-1.71;84.30
53041;BME280;39326;42.650;23.248;2023-01-29T06:30:57;92740.41;;;-1.69;84.39
53041;BME280;39326;42.650;23.248;2023-01-29T06:33:24;92737.53;;;-1.67;84.23
53041;BME280;39326;42.650;23.248;2023-01-29T06:35:57;92744.13;;;-1.61;83.29
53041;BME280;39326;42.650;23.248;2023-01-29T06:38:23;92745.22;;;-1.62;83.12
53041;BME280;39326;42.650;23.248;2023-01-29T06:40:50;92751.53;;;-1.63;83.78
53041;BME280;39326;42.650;23.248;2023-01-29T06:43:15;92759.09;;;-1.53;83.50
53041;BME280;39326;42.650;23.248;2023-01-29T06:45:54;92760.47;;;-1.56;83.69
53041;BME280;39326;42.650;23.248;2023-01-29T06:48:21;92760.50;;;-1.47;83.04
53041;BME280;39326;42.650;23.248;2023-01-29T06:50:47;92753.53;;;-1.60;83.31
53041;BME280;39326;42.650;23.248;2023-01-29T06:53:14;92759.88;;;-1.84;84.39
53041;BME280;39326;42.650;23.248;2023-01-29T06:55:40;92761.28;;;-1.86;84.77
53041;BME280;39326;42.650;23.248;2023-01-29T06:58:10;92763.72;;;-1.81;84.70
53041;BME280;39326;42.650;23.248;2023-01-29T07:00:36;92765.34;;;-1.71;84.48
53041;BME280;39326;42.650;23.248;2023-01-29T07:03:03;92768.50;;;-1.83;85.57
53041;BME280;39326;42.650;23.248;2023-01-29T07:05:29;92765.78;;;-1.69;85.28
53041;BME280;39326;42.650;23.248;2023-01-29T07:07:55;92769.16;;;-1.69;85.33
53041;BME280;39326;42.650;23.248;2023-01-29T07:10:20;92767.75;;;-1.75;85.05
53041;BME280;39326;42.650;23.248;2023-01-29T07:12:46;92761.75;;;-1.75;84.79
53041;BME280;39326;42.650;23.248;2023-01-29T07:15:11;92762.19;;;-1.82;85.30
53041;BME280;39326;42.650;23.248;2023-01-29T07:17:37;92775.59;;;-1.75;85.47
53041;BME280;39326;42.650;23.248;2023-01-29T07:20:04;92784.81;;;-1.77;85.03
53041;BME280;39326;42.650;23.248;2023-01-29T07:22:30;92783.16;;;-1.73;84.70
53041;BME280;39326;42.650;23.248;2023-01-29T07:24:56;92787.19;;;-1.67;84.95
53041;BME280;39326;42.650;23.248;2023-01-29T07:27:21;92788.13;;;-1.63;84.95
53041;BME280;39326;42.650;23.248;2023-01-29T07:29:47;92793.81;;;-1.61;84.29
53041;BME280;39326;42.650;23.248;2023-01-29T07:32:12;92791.47;;;-1.71;85.31
53041;BME280;39326;42.650;23.248;2023-01-29T07:34:38;92791.59;;;-1.76;85.06
53041;BME280;39326;42.650;23.248;2023-01-29T07:37:03;92791.19;;;-1.61;84.62
53041;BME280;39326;42.650;23.248;2023-01-29T07:39:30;92796.56;;;-1.66;84.65
53041;BME280;39326;42.650;23.248;2023-01-29T07:41:56;92789.19;;;-1.64;84.66
53041;BME280;39326;42.650;23.248;2023-01-29T07:44:21;92797.69;;;-1.59;84.73
53041;BME280;39326;42.650;23.248;2023-01-29T07:46:46;92795.03;;;-1.67;85.15
53041;BME280;39326;42.650;23.248;2023-01-29T07:49:12;92797.47;;;-1.71;84.89
53041;BME280;39326;42.650;23.248;2023-01-29T07:51:37;92794.41;;;-1.64;84.79
53041;BME280;39326;42.650;23.248;2023-01-29T07:54:03;92797.94;;;-1.69;84.77
53041;BME280;39326;42.650;23.248;2023-01-29T07:56:28;92799.47;;;-1.68;85.57
53041;BME280;39326;42.650;23.248;2023-01-29T07:58:55;92807.78;;;-1.97;86.25
53041;BME280;39326;42.650;23.248;2023-01-29T08:01:20;92810.63;;;-1.85;86.37
53041;BME280;39326;42.650;23.248;2023-01-29T08:03:46;92802.03;;;-1.76;86.40
53041;BME280;39326;42.650;23.248;2023-01-29T08:06:11;92807.88;;;-1.79;86.55
53041;BME280;39326;42.650;23.248;2023-01-29T08:08:37;92804.28;;;-1.92;86.58
53041;BME280;39326;42.650;23.248;2023-01-29T08:11:03;92811.84;;;-1.82;86.73
53041;BME280;39326;42.650;23.248;2023-01-29T08:13:30;92814.13;;;-1.89;86.33
53041;BME280;39326;42.650;23.248;2023-01-29T08:16:00;92806.63;;;-1.82;86.78
53041;BME280;39326;42.650;23.248;2023-01-29T08:18:26;92814.78;;;-1.84;86.69
53041;BME280;39326;42.650;23.248;2023-01-29T08:20:51;92809.31;;;-1.73;86.67
53041;BME280;39326;42.650;23.248;2023-01-29T08:23:17;92814.38;;;-1.68;86.06
53041;BME280;39326;42.650;23.248;2023-01-29T08:25:42;92815.16;;;-1.68;86.32
53041;BME280;39326;42.650;23.248;2023-01-29T08:28:08;92815.53;;;-1.61;86.19
53041;BME280;39326;42.650;23.248;2023-01-29T08:30:34;92823.22;;;-1.56;85.33
53041;BME280;39326;42.650;23.248;2023-01-29T08:33:01;92824.91;;;-1.60;85.74
53041;BME280;39326;42.650;23.248;2023-01-29T08:35:27;92825.16;;;-1.70;85.18
53041;BME280;39326;42.650;23.248;2023-01-29T08:37:53;92833.06;;;-1.84;85.98
53041;BME280;39326;42.650;23.248;2023-01-29T08:40:19;92838.66;;;-1.99;86.90
53041;BME280;39326;42.650;23.248;2023-01-29T08:42:45;92832.69;;;-2.13;87.21
53041;BME280;39326;42.650;23.248;2023-01-29T08:45:10;92836.56;;;-1.88;86.64
53041;BME280;39326;42.650;23.248;2023-01-29T08:47:36;92839.59;;;-1.72;86.36
53041;BME280;39326;42.650;23.248;2023-01-29T08:50:01;92837.91;;;-1.68;86.04
53041;BME280;39326;42.650;23.248;2023-01-29T08:52:27;92844.09;;;-1.64;85.79
53041;BME280;39326;42.650;23.248;2023-01-29T08:54:52;92840.59;;;-1.82;85.36
53041;BME280;39326;42.650;23.248;2023-01-29T08:57:18;92853.50;;;-1.86;86.21
53041;BME280;39326;42.650;23.248;2023-01-29T08:59:43;92853.25;;;-1.98;86.84
53041;BME280;39326;42.650;23.248;2023-01-29T09:02:10;92857.53;;;-2.02;87.12
53041;BME280;39326;42.650;23.248;2023-01-29T09:04:36;92857.41;;;-1.97;87.45
53041;BME280;39326;42.650;23.248;2023-01-29T09:07:01;92856.22;;;-1.91;87.10
53041;BME280;39326;42.650;23.248;2023-01-29T09:09:26;92854.28;;;-1.85;86.76
53041;BME280;39326;42.650;23.248;2023-01-29T09:11:52;92848.69;;;-1.92;87.67
53041;BME280;39326;42.650;23.248;2023-01-29T09:14:17;92848.91;;;-2.02;87.68
53041;BME280;39326;42.650;23.248;2023-01-29T09:16:43;92850.41;;;-1.88;87.24
53041;BME280;39326;42.650;23.248;2023-01-29T09:19:08;92842.38;;;-1.69;86.79
53041;BME280;39326;42.650;23.248;2023-01-29T09:21:34;92851.31;;;-1.61;86.41
53041;BME280;39326;42.650;23.248;2023-01-29T09:23:59;92852.75;;;-1.55;85.93
53041;BME280;39326;42.650;23.248;2023-01-29T09:26:25;92824.06;;;-1.69;85.60
53041;BME280;39326;42.650;23.248;2023-01-29T09:28:50;92835.78;;;-1.66;86.05
53041;BME280;39326;42.650;23.248;2023-01-29T09:31:15;92838.81;;;-1.73;85.74
53041;BME280;39326;42.650;23.248;2023-01-29T09:33:43;92840.38;;;-1.72;85.93
53041;BME280;39326;42.650;23.248;2023-01-29T09:36:08;92840.53;;;-1.68;85.93
53041;BME280;39326;42.650;23.248;2023-01-29T09:38:34;92835.25;;;-1.55;86.02
53041;BME280;39326;42.650;23.248;2023-01-29T09:41:42;92836.56;;;-1.35;85.28
53041;BME280;39326;42.650;23.248;2023-01-29T09:46:52;92828.94;;;-1.22;84.83
53041;BME280;39326;42.650;23.248;2023-01-29T09:49:24;92831.13;;;-1.47;84.70
53041;BME280;39326;42.650;23.248;2023-01-29T09:52:19;92829.81;;;-1.27;84.56
53041;BME280;39326;42.650;23.248;2023-01-29T09:55:23;92817.50;;;-1.27;83.86
53041;BME280;39326;42.650;23.248;2023-01-29T09:58:12;92827.41;;;-1.15;83.97
53041;BME280;39326;42.650;23.248;2023-01-29T10:01:11;92830.38;;;-0.99;83.62
53041;BME280;39326;42.650;23.248;2023-01-29T10:03:59;92824.34;;;-1.17;83.61
53041;BME280;39326;42.650;23.248;2023-01-29T10:07:12;92825.22;;;-1.21;84.13
53041;BME280;39326;42.650;23.248;2023-01-29T10:20:23;92805.47;;;-1.36;84.22
53041;BME280;39326;42.650;23.248;2023-01-29T10:25:38;92802.47;;;-1.52;84.79
53041;BME280;39326;42.650;23.248;2023-01-29T10:28:16;92809.72;;;-1.49;84.71
53041;BME280;39326;42.650;23.248;2023-01-29T10:30:50;92805.00;;;-1.38;84.35
53041;BME280;39326;42.650;23.248;2023-01-29T10:35:59;92798.00;;;-1.20;84.50
53041;BME280;39326;42.650;23.248;2023-01-29T10:43:35;92795.75;;;-1.44;84.91
53041;BME280;39326;42.650;23.248;2023-01-29T11:01:57;92789.59;;;-1.79;86.87
53041;BME280;39326;42.650;23.248;2023-01-29T11:04:25;92791.03;;;-1.65;86.49
53041;BME280;39326;42.650;23.248;2023-01-29T11:06:51;92790.69;;;-1.72;86.50
53041;BME280;39326;42.650;23.248;2023-01-29T11:09:34;92792.53;;;-1.72;86.55
53041;BME280;39326;42.650;23.248;2023-01-29T11:12:11;92786.13;;;-1.66;86.65
53041;BME280;39326;42.650;23.248;2023-01-29T11:17:25;92787.81;;;-1.62;86.14
53041;BME280;39326;42.650;23.248;2023-01-29T11:19:52;92780.56;;;-1.73;86.80
53041;BME280;39326;42.650;23.248;2023-01-29T11:22:27;92780.41;;;-1.68;87.34
53041;BME280;39326;42.650;23.248;2023-01-29T11:25:15;92767.13;;;-1.81;87.35
53041;BME280;39326;42.650;23.248;2023-01-29T11:27:46;92768.19;;;-1.82;87.51
53041;BME280;39326;42.650;23.248;2023-01-29T11:30:20;92770.47;;;-1.89;87.74
53041;BME280;39326;42.650;23.248;2023-01-29T11:35:23;92763.31;;;-1.74;87.83
53041;BME280;39326;42.650;23.248;2023-01-29T11:37:49;92754.94;;;-1.54;87.22
53041;BME280;39326;42.650;23.248;2023-01-29T11:42:43;92742.03;;;-1.50;86.42
53041;BME280;39326;42.650;23.248;2023-01-29T11:47:52;92728.41;;;-1.30;86.43
53041;BME280;39326;42.650;23.248;2023-01-29T11:50:28;92739.66;;;-1.30;85.88
53041;BME280;39326;42.650;23.248;2023-01-29T11:52:54;92743.47;;;-1.36;85.76
53041;BME280;39326;42.650;23.248;2023-01-29T11:55:22;92739.03;;;-1.35;86.21
53041;BME280;39326;42.650;23.248;2023-01-29T11:57:56;92741.28;;;-1.42;85.62
53041;BME280;39326;42.650;23.248;2023-01-29T12:00:31;92739.63;;;-1.38;85.79
53041;BME280;39326;42.650;23.248;2023-01-29T12:03:21;92731.75;;;-1.38;84.98
53041;BME280;39326;42.650;23.248;2023-01-29T12:06:16;92736.22;;;-1.47;86.13
53041;BME280;39326;42.650;23.248;2023-01-29T12:08:42;92739.63;;;-1.38;86.02
53041;BME280;39326;42.650;23.248;2023-01-29T12:11:14;92725.81;;;-1.21;86.22
53041;BME280;39326;42.650;23.248;2023-01-29T12:13:53;92723.81;;;-1.24;85.75
53041;BME280;39326;42.650;23.248;2023-01-29T12:16:28;92714.78;;;-1.10;85.38
53041;BME280;39326;42.650;23.248;2023-01-29T12:19:09;92717.06;;;-1.00;85.26
53041;BME280;39326;42.650;23.248;2023-01-29T12:21:46;92723.34;;;-1.18;85.55
53041;BME280;39326;42.650;23.248;2023-01-29T12:24:33;92723.69;;;-0.93;84.76
53041;BME280;39326;42.650;23.248;2023-01-29T12:27:09;92729.69;;;-0.93;83.93
53041;BME280;39326;42.650;23.248;2023-01-29T12:29:44;92732.03;;;-0.83;84.02
53041;BME280;39326;42.650;23.248;2023-01-29T12:35:18;92732.31;;;-1.10;85.22
53041;BME280;39326;42.650;23.248;2023-01-29T12:40:27;92736.31;;;-1.04;84.61
53041;BME280;39326;42.650;23.248;2023-01-29T12:42:59;92733.22;;;-1.06;85.40
53041;BME280;39326;42.650;23.248;2023-01-29T12:45:27;92732.31;;;-1.10;85.51
53041;BME280;39326;42.650;23.248;2023-01-29T12:48:00;92733.84;;;-1.09;84.84
53041;BME280;39326;42.650;23.248;2023-01-29T12:50:31;92734.31;;;-1.07;84.53
53041;BME280;39326;42.650;23.248;2023-01-29T12:53:11;92727.94;;;-1.23;84.99
53041;BME280;39326;42.650;23.248;2023-01-29T12:56:12;92733.63;;;-1.39;85.70
53041;BME280;39326;42.650;23.248;2023-01-29T12:58:48;92730.25;;;-1.31;85.99
53041;BME280;39326;42.650;23.248;2023-01-29T13:01:22;92732.25;;;-1.28;85.89
53041;BME280;39326;42.650;23.248;2023-01-29T13:03:56;92727.53;;;-1.17;85.45
53041;BME280;39326;42.650;23.248;2023-01-29T13:06:31;92736.47;;;-1.09;85.35
53041;BME280;39326;42.650;23.248;2023-01-29T13:09:02;92730.47;;;-1.10;85.70
53041;BME280;39326;42.650;23.248;2023-01-29T13:11:40;92725.88;;;-0.95;84.84
53041;BME280;39326;42.650;23.248;2023-01-29T13:14:48;92724.63;;;-0.98;84.60
53041;BME280;39326;42.650;23.248;2023-01-29T13:17:26;92724.59;;;-1.15;84.93
53041;BME280;39326;42.650;23.248;2023-01-29T13:19:57;92727.38;;;-1.12;85.38
53041;BME280;39326;42.650;23.248;2023-01-29T13:22:27;92725.63;;;-1.34;85.68
53041;BME280;39326;42.650;23.248;2023-01-29T13:24:54;92722.13;;;-1.29;85.59
53041;BME280;39326;42.650;23.248;2023-01-29T13:27:26;92730.28;;;-1.13;85.50
53041;BME280;39326;42.650;23.248;2023-01-29T13:29:52;92724.28;;;-1.14;85.12
53041;BME280;39326;42.650;23.248;2023-01-29T13:32:22;92734.56;;;-1.26;86.11
53041;BME280;39326;42.650;23.248;2023-01-29T13:34:50;92732.53;;;-1.38;85.69
53041;BME280;39326;42.650;23.248;2023-01-29T13:39:51;92751.16;;;-1.39;85.88
53041;BME280;39326;42.650;23.248;2023-01-29T13:44:54;92749.63;;;-1.32;86.13
53041;BME280;39326;42.650;23.248;2023-01-29T13:47:26;92743.06;;;-1.20;86.05
53041;BME280;39326;42.650;23.248;2023-01-29T13:49:56;92746.56;;;-1.34;86.31
53041;BME280;39326;42.650;23.248;2023-01-29T13:52:29;92755.75;;;-1.36;86.45
53041;BME280;39326;42.650;23.248;2023-01-29T13:55:06;92754.34;;;-1.42;86.62
53041;BME280;39326;42.650;23.248;2023-01-29T14:00:04;92761.31;;;-1.38;86.63
53041;BME280;39326;42.650;23.248;2023-01-29T14:02:30;92761.38;;;-1.20;85.89
53041;BME280;39326;42.650;23.248;2023-01-29T14:08:05;92760.22;;;-1.37;84.96
53041;BME280;39326;42.650;23.248;2023-01-29T14:10:32;92759.63;;;-1.34;84.90
53041;BME280;39326;42.650;23.248;2023-01-29T14:15:43;92763.84;;;-1.55;85.37
53041;BME280;39326;42.650;23.248;2023-01-29T14:18:16;92767.19;;;-1.63;85.78
53041;BME280;39326;42.650;23.248;2023-01-29T14:25:55;92780.16;;;-1.58;85.50
53041;BME280;39326;42.650;23.248;2023-01-29T14:28:28;92790.34;;;-1.48;85.07
53041;BME280;39326;42.650;23.248;2023-01-29T14:30:54;92790.50;;;-1.44;84.96
53041;BME280;39326;42.650;23.248;2023-01-29T14:35:49;92790.41;;;-1.70;86.16
53041;BME280;39326;42.650;23.248;2023-01-29T14:38:16;92791.16;;;-1.70;86.16
53041;BME280;39326;42.650;23.248;2023-01-29T14:40:44;92798.47;;;-1.81;86.86
53041;BME280;39326;42.650;23.248;2023-01-29T14:43:20;92799.63;;;-1.73;87.02
53041;BME280;39326;42.650;23.248;2023-01-29T14:45:47;92802.09;;;-1.68;86.70
53041;BME280;39326;42.650;23.248;2023-01-29T14:48:37;92787.78;;;-1.70;87.13
53041;BME280;39326;42.650;23.248;2023-01-29T14:51:11;92799.66;;;-1.64;86.88
53041;BME280;39326;42.650;23.248;2023-01-29T14:53:52;92791.13;;;-1.78;87.14
53041;BME280;39326;42.650;23.248;2023-01-29T14:59:31;92785.91;;;-1.39;84.99
53041;BME280;39326;42.650;23.248;2023-01-29T15:02:01;92797.75;;;-1.41;85.21
53041;BME280;39326;42.650;23.248;2023-01-29T15:04:32;92785.47;;;-1.32;84.99
53041;BME280;39326;42.650;23.248;2023-01-29T15:07:11;92796.19;;;-1.51;85.08
53041;BME280;39326;42.650;23.248;2023-01-29T15:09:50;92794.94;;;-1.54;85.04
53041;BME280;39326;42.650;23.248;2023-01-29T15:15:14;92791.59;;;-1.45;84.64